sensor_id;sensor_type;location;lat;lon;timestamp;P1;durP1;ratioP1;P2;durP2;ratioP2
7158;SDS011;63175;52.374;13.132;2024-01-16T00:01:41;3.10;;;2.60;;
7158;SDS011;63175;52.374;13.132;2024-01-16T00:04:10;2.03;;;1.80;;
7158;SDS011;63175;52.374;13.132;2024-01-16T00:06:38;2.50;;;2.33;;
7158;SDS011;63175;52.374;13.132;2024-01-16T00:09:05;2.30;;;2.10;;
7158;SDS011;63175;52.374;13.132;2024-01-16T00:11:32;2.50;;;2.30;;
7158;SDS011;63175;52.374;13.132;2024-01-16T00:13:59;4.93;;;1.97;;
7158;SDS011;63175;52.374;13.132;2024-01-16T00:16:26;5.30;;;2.50;;
7158;SDS011;63175;52.374;13.132;2024-01-16T00:18:52;2.00;;;1.90;;
7158;SDS011;63175;52.374;13.132;2024-01-16T00:21:21;1.77;;;1.60;;
7158;SDS011;63175;52.374;13.132;2024-01-16T00:23:47;1.50;;;1.40;;
7158;SDS011;63175;52.374;13.132;2024-01-16T00:26:20;2.30;;;2.10;;
7158;SDS011;63175;52.374;13.132;2024-01-16T00:28:48;2.33;;;2.07;;
7158;SDS011;63175;52.374;13.132;2024-01-16T00:31:15;3.27;;;1.60;;
7158;SDS011;63175;52.374;13.132;2024-01-16T00:33:41;1.30;;;1.20;;
7158;SDS011;63175;52.374;13.132;2024-01-16T00:36:08;1.43;;;1.33;;
7158;SDS011;63175;52.374;13.132;2024-01-16T00:38:36;1.53;;;1.23;;
7158;SDS011;63175;52.374;13.132;2024-01-16T00:41:03;1.00;;;1.00;;
7158;SDS011;63175;52.374;13.132;2024-01-16T00:43:31;1.00;;;1.00;;
7158;SDS011;63175;52.374;13.132;2024-01-16T00:46:00;1.40;;;1.30;;
7158;SDS011;63175;52.374;13.132;2024-01-16T00:48:27;1.03;;;0.87;;
7158;SDS011;63175;52.374;13.132;2024-01-16T00:50:54;0.80;;;0.80;;
7158;SDS011;63175;52.374;13.132;2024-01-16T00:53:21;3.80;;;1.00;;
7158;SDS011;63175;52.374;13.132;2024-01-16T00:55:49;3.10;;;1.20;;
7158;SDS011;63175;52.374;13.132;2024-01-16T00:58:17;3.63;;;1.53;;
7158;SDS011;63175;52.374;13.132;2024-01-16T01:00:44;1.53;;;0.87;;
7158;SDS011;63175;52.374;13.132;2024-01-16T01:03:10;1.50;;;1.40;;
7158;SDS011;63175;52.374;13.132;2024-01-16T01:05:37;1.53;;;1.43;;
7158;SDS011;63175;52.374;13.132;2024-01-16T01:08:05;1.77;;;1.67;;
7158;SDS011;63175;52.374;13.132;2024-01-16T01:10:32;2.90;;;2.10;;
7158;SDS011;63175;52.374;13.132;2024-01-16T01:13:00;2.70;;;2.50;;
7158;SDS011;63175;52.374;13.132;2024-01-16T01:15:27;3.70;;;1.83;;
7158;SDS011;63175;52.374;13.132;2024-01-16T01:17:54;2.30;;;2.10;;
7158;SDS011;63175;52.374;13.132;2024-01-16T01:20:21;4.87;;;2.23;;
7158;SDS011;63175;52.374;13.132;2024-01-16T01:22:48;5.20;;;2.67;;
7158;SDS011;63175;52.374;13.132;2024-01-16T01:25:15;2.40;;;2.30;;
7158;SDS011;63175;52.374;13.132;2024-01-16T01:27:41;3.37;;;2.27;;
7158;SDS011;63175;52.374;13.132;2024-01-16T01:30:10;2.10;;;1.53;;
7158;SDS011;63175;52.374;13.132;2024-01-16T01:32:36;1.33;;;1.17;;
7158;SDS011;63175;52.374;13.132;2024-01-16T01:35:04;1.10;;;1.00;;
7158;SDS011;63175;52.374;13.132;2024-01-16T01:37:31;0.87;;;0.80;;
7158;SDS011;63175;52.374;13.132;2024-01-16T01:39:58;0.90;;;0.80;;
7158;SDS011;63175;52.374;13.132;2024-01-16T01:42:25;0.70;;;0.70;;
7158;SDS011;63175;52.374;13.132;2024-01-16T01:44:51;0.70;;;0.70;;
7158;SDS011;63175;52.374;13.132;2024-01-16T01:47:20;0.70;;;0.70;;
7158;SDS011;63175;52.374;13.132;2024-01-16T01:49:47;0.80;;;0.73;;
7158;SDS011;63175;52.374;13.132;2024-01-16T01:52:14;0.60;;;0.60;;
7158;SDS011;63175;52.374;13.132;2024-01-16T01:54:41;0.70;;;0.60;;
7158;SDS011;63175;52.374;13.132;2024-01-16T01:57:08;0.63;;;0.63;;
7158;SDS011;63175;52.374;13.132;2024-01-16T01:59:35;2.10;;;0.97;;
7158;SDS011;63175;52.374;13.132;2024-01-16T02:02:02;8.53;;;1.00;;
7158;SDS011;63175;52.374;13.132;2024-01-16T02:04:32;1.30;;;0.80;;
7158;SDS011;63175;52.374;13.132;2024-01-16T02:07:00;1.13;;;0.93;;
7158;SDS011;63175;52.374;13.132;2024-01-16T02:09:27;0.70;;;0.70;;
7158;SDS011;63175;52.374;13.132;2024-01-16T02:11:54;1.03;;;0.60;;
7158;SDS011;63175;52.374;13.132;2024-01-16T02:14:21;0.50;;;0.50;;
7158;SDS011;63175;52.374;13.132;2024-01-16T02:16:47;0.70;;;0.70;;
7158;SDS011;63175;52.374;13.132;2024-01-16T02:19:15;1.20;;;0.60;;
7158;SDS011;63175;52.374;13.132;2024-01-16T02:21:43;0.97;;;0.70;;
7158;SDS011;63175;52.374;13.132;2024-01-16T02:24:15;1.27;;;0.60;;
7158;SDS011;63175;52.374;13.132;2024-01-16T02:26:43;6.87;;;0.77;;
7158;SDS011;63175;52.374;13.132;2024-01-16T02:29:10;1.00;;;0.70;;
7158;SDS011;63175;52.374;13.132;2024-01-16T02:31:37;1.77;;;0.70;;
7158;SDS011;63175;52.374;13.132;2024-01-16T02:34:03;1.87;;;1.10;;
7158;SDS011;63175;52.374;13.132;2024-01-16T02:36:32;0.70;;;0.57;;
7158;SDS011;63175;52.374;13.132;2024-01-16T02:38:59;0.80;;;0.50;;
7158;SDS011;63175;52.374;13.132;2024-01-16T02:41:27;1.93;;;0.87;;
7158;SDS011;63175;52.374;13.132;2024-01-16T02:43:54;1.33;;;0.90;;
7158;SDS011;63175;52.374;13.132;2024-01-16T02:46:21;1.00;;;0.90;;
7158;SDS011;63175;52.374;13.132;2024-01-16T02:48:48;0.70;;;0.70;;
7158;SDS011;63175;52.374;13.132;2024-01-16T02:51:15;2.30;;;0.60;;
7158;SDS011;63175;52.374;13.132;2024-01-16T02:53:42;0.67;;;0.60;;
7158;SDS011;63175;52.374;13.132;2024-01-16T02:56:09;1.00;;;1.00;;
7158;SDS011;63175;52.374;13.132;2024-01-16T02:58:37;1.13;;;0.67;;
7158;SDS011;63175;52.374;13.132;2024-01-16T03:01:04;1.10;;;1.00;;
7158;SDS011;63175;52.374;13.132;2024-01-16T03:03:30;1.40;;;0.90;;
7158;SDS011;63175;52.374;13.132;2024-01-16T03:05:57;0.80;;;0.80;;
7158;SDS011;63175;52.374;13.132;2024-01-16T03:08:24;4.97;;;1.20;;
7158;SDS011;63175;52.374;13.132;2024-01-16T03:10:51;2.13;;;1.30;;
7158;SDS011;63175;52.374;13.132;2024-01-16T03:13:18;4.33;;;1.23;;
7158;SDS011;63175;52.374;13.132;2024-01-16T03:15:46;1.67;;;1.00;;
7158;SDS011;63175;52.374;13.132;2024-01-16T03:18:13;2.47;;;1.00;;
7158;SDS011;63175;52.374;13.132;2024-01-16T03:20:40;1.97;;;0.67;;
7158;SDS011;63175;52.374;13.132;2024-01-16T03:23:07;2.53;;;1.00;;
7158;SDS011;63175;52.374;13.132;2024-01-16T03:25:34;0.80;;;0.80;;
7158;SDS011;63175;52.374;13.132;2024-01-16T03:28:04;0.90;;;0.73;;
7158;SDS011;63175;52.374;13.132;2024-01-16T03:30:33;0.87;;;0.87;;
7158;SDS011;63175;52.374;13.132;2024-01-16T03:33:01;0.50;;;0.50;;
7158;SDS011;63175;52.374;13.132;2024-01-16T03:35:28;0.70;;;0.70;;
7158;SDS011;63175;52.374;13.132;2024-01-16T03:37:55;0.70;;;0.70;;
7158;SDS011;63175;52.374;13.132;2024-01-16T03:40:22;0.70;;;0.70;;
7158;SDS011;63175;52.374;13.132;2024-01-16T03:42:48;0.80;;;0.70;;
7158;SDS011;63175;52.374;13.132;2024-01-16T03:45:15;0.87;;;0.80;;
7158;SDS011;63175;52.374;13.132;2024-01-16T03:47:49;0.80;;;0.50;;
7158;SDS011;63175;52.374;13.132;2024-01-16T03:50:24;0.67;;;0.67;;
7158;SDS011;63175;52.374;13.132;2024-01-16T03:52:51;0.63;;;0.63;;
7158;SDS011;63175;52.374;13.132;2024-01-16T03:55:18;1.23;;;0.80;;
7158;SDS011;63175;52.374;13.132;2024-01-16T03:57:46;1.00;;;0.90;;
7158;SDS011;63175;52.374;13.132;2024-01-16T04:00:13;0.97;;;0.60;;
7158;SDS011;63175;52.374;13.132;2024-01-16T04:02:40;1.03;;;0.70;;
7158;SDS011;63175;52.374;13.132;2024-01-16T04:05:07;2.50;;;0.80;;
7158;SDS011;63175;52.374;13.132;2024-01-16T04:07:35;1.23;;;0.63;;
7158;SDS011;63175;52.374;13.132;2024-01-16T04:10:02;2.30;;;0.90;;
7158;SDS011;63175;52.374;13.132;2024-01-16T04:12:30;1.20;;;1.10;;
7158;SDS011;63175;52.374;13.132;2024-01-16T04:14:57;1.20;;;1.20;;
7158;SDS011;63175;52.374;13.132;2024-01-16T04:17:24;0.90;;;0.90;;
7158;SDS011;63175;52.374;13.132;2024-01-16T04:19:50;1.23;;;1.13;;
7158;SDS011;63175;52.374;13.132;2024-01-16T04:22:17;0.80;;;0.70;;
7158;SDS011;63175;52.374;13.132;2024-01-16T04:24:45;0.87;;;0.70;;
7158;SDS011;63175;52.374;13.132;2024-01-16T04:27:12;1.70;;;0.80;;
7158;SDS011;63175;52.374;13.132;2024-01-16T04:29:40;1.10;;;0.67;;
7158;SDS011;63175;52.374;13.132;2024-01-16T04:32:05;0.70;;;0.60;;
7158;SDS011;63175;52.374;13.132;2024-01-16T04:34:33;1.80;;;0.93;;
7158;SDS011;63175;52.374;13.132;2024-01-16T04:36:59;0.50;;;0.50;;
7158;SDS011;63175;52.374;13.132;2024-01-16T04:39:26;1.37;;;0.97;;
7158;SDS011;63175;52.374;13.132;2024-01-16T04:41:54;0.70;;;0.70;;
7158;SDS011;63175;52.374;13.132;2024-01-16T04:44:21;0.73;;;0.73;;
7158;SDS011;63175;52.374;13.132;2024-01-16T04:46:48;0.80;;;0.80;;
7158;SDS011;63175;52.374;13.132;2024-01-16T04:49:15;1.10;;;0.70;;
7158;SDS011;63175;52.374;13.132;2024-01-16T04:51:43;1.73;;;0.60;;
7158;SDS011;63175;52.374;13.132;2024-01-16T04:54:11;2.50;;;1.00;;
7158;SDS011;63175;52.374;13.132;2024-01-16T04:56:38;2.20;;;0.80;;
7158;SDS011;63175;52.374;13.132;2024-01-16T04:59:06;0.80;;;0.77;;
7158;SDS011;63175;52.374;13.132;2024-01-16T05:01:33;3.37;;;1.33;;
7158;SDS011;63175;52.374;13.132;2024-01-16T05:04:00;1.53;;;1.03;;
7158;SDS011;63175;52.374;13.132;2024-01-16T05:06:26;1.47;;;1.00;;
7158;SDS011;63175;52.374;13.132;2024-01-16T05:08:53;1.73;;;1.00;;
7158;SDS011;63175;52.374;13.132;2024-01-16T05:11:20;0.90;;;0.90;;
7158;SDS011;63175;52.374;13.132;2024-01-16T05:13:47;5.20;;;1.03;;
7158;SDS011;63175;52.374;13.132;2024-01-16T05:16:15;2.93;;;1.07;;
7158;SDS011;63175;52.374;13.132;2024-01-16T05:18:42;3.17;;;0.80;;
7158;SDS011;63175;52.374;13.132;2024-01-16T05:21:09;1.30;;;1.00;;
7158;SDS011;63175;52.374;13.132;2024-01-16T05:23:36;1.37;;;1.20;;
7158;SDS011;63175;52.374;13.132;2024-01-16T05:26:03;2.60;;;1.50;;
7158;SDS011;63175;52.374;13.132;2024-01-16T05:28:30;1.60;;;1.17;;
7158;SDS011;63175;52.374;13.132;2024-01-16T05:30:57;1.57;;;1.00;;
7158;SDS011;63175;52.374;13.132;2024-01-16T05:33:25;2.30;;;1.10;;
7158;SDS011;63175;52.374;13.132;2024-01-16T05:35:52;1.20;;;1.10;;
7158;SDS011;63175;52.374;13.132;2024-01-16T05:38:19;2.70;;;1.43;;
7158;SDS011;63175;52.374;13.132;2024-01-16T05:40:46;1.53;;;1.50;;
7158;SDS011;63175;52.374;13.132;2024-01-16T05:43:13;1.93;;;1.73;;
7158;SDS011;63175;52.374;13.132;2024-01-16T05:45:40;3.27;;;1.27;;
7158;SDS011;63175;52.374;13.132;2024-01-16T05:48:06;1.50;;;1.40;;
7158;SDS011;63175;52.374;13.132;2024-01-16T05:50:35;2.03;;;1.90;;
7158;SDS011;63175;52.374;13.132;2024-01-16T05:53:03;1.33;;;1.23;;
7158;SDS011;63175;52.374;13.132;2024-01-16T05:55:29;3.27;;;1.80;;
7158;SDS011;63175;52.374;13.132;2024-01-16T05:57:57;2.83;;;2.63;;
7158;SDS011;63175;52.374;13.132;2024-01-16T06:00:25;1.47;;;1.23;;
7158;SDS011;63175;52.374;13.132;2024-01-16T06:02:52;2.97;;;1.57;;
7158;SDS011;63175;52.374;13.132;2024-01-16T06:05:19;1.80;;;1.60;;
7158;SDS011;63175;52.374;13.132;2024-01-16T06:07:47;1.73;;;1.20;;
7158;SDS011;63175;52.374;13.132;2024-01-16T06:10:14;1.60;;;1.50;;
7158;SDS011;63175;52.374;13.132;2024-01-16T06:12:41;2.23;;;2.03;;
7158;SDS011;63175;52.374;13.132;2024-01-16T06:15:09;1.60;;;1.50;;
7158;SDS011;63175;52.374;13.132;2024-01-16T06:17:36;2.50;;;1.60;;
7158;SDS011;63175;52.374;13.132;2024-01-16T06:20:03;1.80;;;1.70;;
7158;SDS011;63175;52.374;13.132;2024-01-16T06:22:31;1.70;;;1.60;;
7158;SDS011;63175;52.374;13.132;2024-01-16T06:25:00;3.40;;;1.67;;
7158;SDS011;63175;52.374;13.132;2024-01-16T06:27:27;1.77;;;1.47;;
7158;SDS011;63175;52.374;13.132;2024-01-16T06:29:54;2.90;;;1.93;;
7158;SDS011;63175;52.374;13.132;2024-01-16T06:32:20;2.00;;;1.90;;
7158;SDS011;63175;52.374;13.132;2024-01-16T06:34:47;2.00;;;1.90;;
7158;SDS011;63175;52.374;13.132;2024-01-16T06:37:14;3.87;;;2.50;;
7158;SDS011;63175;52.374;13.132;2024-01-16T06:39:41;3.30;;;2.40;;
7158;SDS011;63175;52.374;13.132;2024-01-16T06:42:09;4.50;;;2.00;;
7158;SDS011;63175;52.374;13.132;2024-01-16T06:44:36;2.90;;;2.60;;
7158;SDS011;63175;52.374;13.132;2024-01-16T06:47:03;2.50;;;2.30;;
7158;SDS011;63175;52.374;13.132;2024-01-16T06:49:30;2.33;;;2.13;;
7158;SDS011;63175;52.374;13.132;2024-01-16T06:51:57;2.17;;;2.00;;
7158;SDS011;63175;52.374;13.132;2024-01-16T06:54:23;2.70;;;2.47;;
7158;SDS011;63175;52.374;13.132;2024-01-16T06:56:51;2.87;;;1.97;;
7158;SDS011;63175;52.374;13.132;2024-01-16T06:59:19;3.57;;;2.50;;
7158;SDS011;63175;52.374;13.132;2024-01-16T07:01:46;2.93;;;2.60;;
7158;SDS011;63175;52.374;13.132;2024-01-16T07:04:13;3.03;;;2.80;;
7158;SDS011;63175;52.374;13.132;2024-01-16T07:06:40;2.27;;;2.17;;
7158;SDS011;63175;52.374;13.132;2024-01-16T07:09:08;2.97;;;2.77;;
7158;SDS011;63175;52.374;13.132;2024-01-16T07:11:36;5.07;;;2.73;;
7158;SDS011;63175;52.374;13.132;2024-01-16T07:14:04;3.00;;;2.70;;
7158;SDS011;63175;52.374;13.132;2024-01-16T07:16:34;3.33;;;3.10;;
7158;SDS011;63175;52.374;13.132;2024-01-16T07:19:01;5.00;;;2.40;;
7158;SDS011;63175;52.374;13.132;2024-01-16T07:21:28;5.33;;;3.07;;
7158;SDS011;63175;52.374;13.132;2024-01-16T07:23:55;3.00;;;2.80;;
7158;SDS011;63175;52.374;13.132;2024-01-16T07:26:22;4.97;;;2.80;;
7158;SDS011;63175;52.374;13.132;2024-01-16T07:28:49;3.57;;;3.27;;
7158;SDS011;63175;52.374;13.132;2024-01-16T07:31:15;3.23;;;2.90;;
7158;SDS011;63175;52.374;13.132;2024-01-16T07:33:44;3.37;;;3.00;;
7158;SDS011;63175;52.374;13.132;2024-01-16T07:36:11;3.43;;;3.07;;
7158;SDS011;63175;52.374;13.132;2024-01-16T07:38:38;3.30;;;3.10;;
7158;SDS011;63175;52.374;13.132;2024-01-16T07:41:04;3.43;;;3.13;;
7158;SDS011;63175;52.374;13.132;2024-01-16T07:43:31;3.60;;;2.83;;
7158;SDS011;63175;52.374;13.132;2024-01-16T07:45:59;3.10;;;2.90;;
7158;SDS011;63175;52.374;13.132;2024-01-16T07:48:26;3.20;;;2.90;;
7158;SDS011;63175;52.374;13.132;2024-01-16T07:50:54;4.80;;;4.30;;
7158;SDS011;63175;52.374;13.132;2024-01-16T07:53:21;4.10;;;3.70;;
7158;SDS011;63175;52.374;13.132;2024-01-16T07:55:48;3.57;;;3.30;;
7158;SDS011;63175;52.374;13.132;2024-01-16T07:58:15;6.07;;;3.37;;
7158;SDS011;63175;52.374;13.132;2024-01-16T08:00:41;3.33;;;3.03;;
7158;SDS011;63175;52.374;13.132;2024-01-16T08:03:08;3.63;;;3.33;;
7158;SDS011;63175;52.374;13.132;2024-01-16T08:05:36;3.70;;;3.33;;
7158;SDS011;63175;52.374;13.132;2024-01-16T08:08:05;3.90;;;3.60;;
7158;SDS011;63175;52.374;13.132;2024-01-16T08:10:34;5.87;;;4.17;;
7158;SDS011;63175;52.374;13.132;2024-01-16T08:13:01;4.93;;;3.40;;
7158;SDS011;63175;52.374;13.132;2024-01-16T08:15:28;4.00;;;3.60;;
7158;SDS011;63175;52.374;13.132;2024-01-16T08:17:55;3.87;;;3.40;;
7158;SDS011;63175;52.374;13.132;2024-01-16T08:20:22;4.40;;;4.00;;
7158;SDS011;63175;52.374;13.132;2024-01-16T08:22:48;6.60;;;3.73;;
7158;SDS011;63175;52.374;13.132;2024-01-16T08:25:17;4.33;;;3.70;;
7158;SDS011;63175;52.374;13.132;2024-01-16T08:27:44;4.13;;;3.40;;
7158;SDS011;63175;52.374;13.132;2024-01-16T08:30:11;6.40;;;3.63;;
7158;SDS011;63175;52.374;13.132;2024-01-16T08:32:38;7.13;;;4.27;;
7158;SDS011;63175;52.374;13.132;2024-01-16T08:35:05;3.57;;;3.27;;
7158;SDS011;63175;52.374;13.132;2024-01-16T08:37:33;4.27;;;3.20;;
7158;SDS011;63175;52.374;13.132;2024-01-16T08:40:00;4.20;;;3.40;;
7158;SDS011;63175;52.374;13.132;2024-01-16T08:42:29;4.70;;;3.03;;
7158;SDS011;63175;52.374;13.132;2024-01-16T08:44:56;2.63;;;2.43;;
7158;SDS011;63175;52.374;13.132;2024-01-16T08:47:23;10.50;;;2.80;;
7158;SDS011;63175;52.374;13.132;2024-01-16T08:49:50;6.67;;;3.97;;
7158;SDS011;63175;52.374;13.132;2024-01-16T08:52:17;3.00;;;2.80;;
7158;SDS011;63175;52.374;13.132;2024-01-16T08:54:44;3.43;;;3.17;;
7158;SDS011;63175;52.374;13.132;2024-01-16T08:57:11;4.77;;;3.10;;
7158;SDS011;63175;52.374;13.132;2024-01-16T08:59:39;3.97;;;3.00;;
7158;SDS011;63175;52.374;13.132;2024-01-16T09:02:06;3.63;;;3.33;;
7158;SDS011;63175;52.374;13.132;2024-01-16T09:04:33;3.07;;;2.77;;
7158;SDS011;63175;52.374;13.132;2024-01-16T09:06:59;3.73;;;3.33;;
7158;SDS011;63175;52.374;13.132;2024-01-16T09:09:29;3.90;;;3.07;;
7158;SDS011;63175;52.374;13.132;2024-01-16T09:11:56;6.17;;;2.90;;
7158;SDS011;63175;52.374;13.132;2024-01-16T09:14:24;6.17;;;2.70;;
7158;SDS011;63175;52.374;13.132;2024-01-16T09:16:52;2.40;;;2.30;;
7158;SDS011;63175;52.374;13.132;2024-01-16T09:19:20;2.10;;;2.00;;
7158;SDS011;63175;52.374;13.132;2024-01-16T09:21:47;5.33;;;2.87;;
7158;SDS011;63175;52.374;13.132;2024-01-16T09:24:13;4.73;;;1.87;;
7158;SDS011;63175;52.374;13.132;2024-01-16T09:26:40;2.80;;;2.33;;
7158;SDS011;63175;52.374;13.132;2024-01-16T09:29:09;3.80;;;1.93;;
7158;SDS011;63175;52.374;13.132;2024-01-16T09:31:36;3.43;;;2.17;;
7158;SDS011;63175;52.374;13.132;2024-01-16T09:34:04;3.73;;;2.00;;
7158;SDS011;63175;52.374;13.132;2024-01-16T09:36:31;3.57;;;2.97;;
7158;SDS011;63175;52.374;13.132;2024-01-16T09:39:00;3.40;;;2.00;;
7158;SDS011;63175;52.374;13.132;2024-01-16T09:41:27;3.13;;;2.20;;
7158;SDS011;63175;52.374;13.132;2024-01-16T09:43:57;3.33;;;1.70;;
7158;SDS011;63175;52.374;13.132;2024-01-16T09:46:25;2.43;;;2.10;;
7158;SDS011;63175;52.374;13.132;2024-01-16T09:48:53;3.43;;;2.90;;
7158;SDS011;63175;52.374;13.132;2024-01-16T09:51:22;5.17;;;2.97;;
7158;SDS011;63175;52.374;13.132;2024-01-16T09:53:49;4.20;;;2.40;;
7158;SDS011;63175;52.374;13.132;2024-01-16T09:56:17;3.93;;;1.90;;
7158;SDS011;63175;52.374;13.132;2024-01-16T09:58:49;4.40;;;1.90;;
7158;SDS011;63175;52.374;13.132;2024-01-16T10:01:19;4.70;;;2.23;;
7158;SDS011;63175;52.374;13.132;2024-01-16T10:03:46;5.93;;;1.90;;
7158;SDS011;63175;52.374;13.132;2024-01-16T10:06:13;2.40;;;1.70;;
7158;SDS011;63175;52.374;13.132;2024-01-16T10:08:44;2.70;;;2.17;;
7158;SDS011;63175;52.374;13.132;2024-01-16T10:11:12;7.10;;;2.07;;
7158;SDS011;63175;52.374;13.132;2024-01-16T10:13:39;4.80;;;2.40;;
7158;SDS011;63175;52.374;13.132;2024-01-16T10:16:06;5.77;;;1.87;;
7158;SDS011;63175;52.374;13.132;2024-01-16T10:18:33;5.67;;;1.63;;
7158;SDS011;63175;52.374;13.132;2024-01-16T10:21:02;5.00;;;1.67;;
7158;SDS011;63175;52.374;13.132;2024-01-16T10:23:30;2.43;;;1.20;;
7158;SDS011;63175;52.374;13.132;2024-01-16T10:26:09;5.20;;;1.80;;
7158;SDS011;63175;52.374;13.132;2024-01-16T10:28:38;5.40;;;1.20;;
7158;SDS011;63175;52.374;13.132;2024-01-16T10:31:06;3.33;;;1.57;;
7158;SDS011;63175;52.374;13.132;2024-01-16T10:33:33;9.03;;;1.60;;
7158;SDS011;63175;52.374;13.132;2024-01-16T10:36:08;3.73;;;1.50;;
7158;SDS011;63175;52.374;13.132;2024-01-16T10:38:36;1.40;;;1.30;;
7158;SDS011;63175;52.374;13.132;2024-01-16T10:41:05;2.47;;;1.63;;
7158;SDS011;63175;52.374;13.132;2024-01-16T10:43:36;1.87;;;1.67;;
7158;SDS011;63175;52.374;13.132;2024-01-16T10:46:07;4.27;;;1.60;;
7158;SDS011;63175;52.374;13.132;2024-01-16T10:48:38;2.90;;;1.90;;
7158;SDS011;63175;52.374;13.132;2024-01-16T10:51:07;1.70;;;1.40;;
7158;SDS011;63175;52.374;13.132;2024-01-16T10:53:34;4.30;;;1.47;;
7158;SDS011;63175;52.374;13.132;2024-01-16T10:56:02;6.67;;;1.60;;
7158;SDS011;63175;52.374;13.132;2024-01-16T10:58:37;3.10;;;1.93;;
7158;SDS011;63175;52.374;13.132;2024-01-16T11:01:08;6.43;;;2.03;;
7158;SDS011;63175;52.374;13.132;2024-01-16T11:03:39;4.40;;;2.10;;
7158;SDS011;63175;52.374;13.132;2024-01-16T11:06:09;5.37;;;2.57;;
7158;SDS011;63175;52.374;13.132;2024-01-16T11:08:38;3.40;;;1.80;;
7158;SDS011;63175;52.374;13.132;2024-01-16T11:11:06;2.73;;;1.80;;
7158;SDS011;63175;52.374;13.132;2024-01-16T11:13:34;5.03;;;2.90;;
7158;SDS011;63175;52.374;13.132;2024-01-16T11:16:03;3.93;;;2.10;;
7158;SDS011;63175;52.374;13.132;2024-01-16T11:18:32;6.67;;;2.93;;
7158;SDS011;63175;52.374;13.132;2024-01-16T11:21:00;6.90;;;2.20;;
7158;SDS011;63175;52.374;13.132;2024-01-16T11:23:28;5.10;;;2.20;;
7158;SDS011;63175;52.374;13.132;2024-01-16T11:25:55;6.63;;;2.90;;
7158;SDS011;63175;52.374;13.132;2024-01-16T11:28:27;5.77;;;3.03;;
7158;SDS011;63175;52.374;13.132;2024-01-16T11:30:57;7.20;;;2.53;;
7158;SDS011;63175;52.374;13.132;2024-01-16T11:33:42;5.00;;;3.00;;
7158;SDS011;63175;52.374;13.132;2024-01-16T11:39:16;2.93;;;2.43;;
7158;SDS011;63175;52.374;13.132;2024-01-16T11:41:47;3.47;;;2.50;;
7158;SDS011;63175;52.374;13.132;2024-01-16T11:47:17;5.80;;;2.60;;
7158;SDS011;63175;52.374;13.132;2024-01-16T11:49:45;7.60;;;2.90;;
7158;SDS011;63175;52.374;13.132;2024-01-16T11:52:12;5.60;;;2.93;;
7158;SDS011;63175;52.374;13.132;2024-01-16T11:54:41;3.60;;;2.07;;
7158;SDS011;63175;52.374;13.132;2024-01-16T12:00:02;3.27;;;1.97;;
7158;SDS011;63175;52.374;13.132;2024-01-16T12:02:51;10.23;;;2.30;;
7158;SDS011;63175;52.374;13.132;2024-01-16T12:05:19;7.80;;;2.30;;
7158;SDS011;63175;52.374;13.132;2024-01-16T12:07:46;2.60;;;2.23;;
7158;SDS011;63175;52.374;13.132;2024-01-16T12:10:15;4.17;;;2.60;;
7158;SDS011;63175;52.374;13.132;2024-01-16T12:12:42;3.47;;;2.70;;
7158;SDS011;63175;52.374;13.132;2024-01-16T12:15:13;6.17;;;2.53;;
7158;SDS011;63175;52.374;13.132;2024-01-16T12:17:52;2.70;;;2.17;;
7158;SDS011;63175;52.374;13.132;2024-01-16T12:20:23;7.23;;;2.40;;
7158;SDS011;63175;52.374;13.132;2024-01-16T12:22:56;2.43;;;2.23;;
7158;SDS011;63175;52.374;13.132;2024-01-16T12:25:25;4.50;;;1.70;;
7158;SDS011;63175;52.374;13.132;2024-01-16T12:27:56;2.77;;;2.03;;
7158;SDS011;63175;52.374;13.132;2024-01-16T12:30:24;2.37;;;1.77;;
7158;SDS011;63175;52.374;13.132;2024-01-16T12:32:57;3.40;;;2.13;;
7158;SDS011;63175;52.374;13.132;2024-01-16T12:35:29;7.80;;;3.00;;
7158;SDS011;63175;52.374;13.132;2024-01-16T12:38:00;8.33;;;2.13;;
7158;SDS011;63175;52.374;13.132;2024-01-16T12:40:27;5.67;;;2.10;;
7158;SDS011;63175;52.374;13.132;2024-01-16T12:42:54;2.70;;;1.60;;
7158;SDS011;63175;52.374;13.132;2024-01-16T12:45:21;3.10;;;1.80;;
7158;SDS011;63175;52.374;13.132;2024-01-16T12:47:51;2.13;;;1.93;;
7158;SDS011;63175;52.374;13.132;2024-01-16T12:50:21;3.23;;;1.83;;
7158;SDS011;63175;52.374;13.132;2024-01-16T12:52:48;5.60;;;2.03;;
7158;SDS011;63175;52.374;13.132;2024-01-16T12:55:16;3.60;;;1.90;;
7158;SDS011;63175;52.374;13.132;2024-01-16T12:57:44;10.60;;;2.60;;
7158;SDS011;63175;52.374;13.132;2024-01-16T13:00:20;8.30;;;1.97;;
7158;SDS011;63175;52.374;13.132;2024-01-16T13:02:50;3.80;;;1.50;;
7158;SDS011;63175;52.374;13.132;2024-01-16T13:05:18;4.00;;;2.10;;
7158;SDS011;63175;52.374;13.132;2024-01-16T13:07:46;5.03;;;1.90;;
7158;SDS011;63175;52.374;13.132;2024-01-16T13:10:28;7.17;;;1.77;;
7158;SDS011;63175;52.374;13.132;2024-01-16T13:15:37;3.67;;;2.20;;
7158;SDS011;63175;52.374;13.132;2024-01-16T13:18:04;5.13;;;2.97;;
7158;SDS011;63175;52.374;13.132;2024-01-16T13:20:31;2.50;;;1.80;;
7158;SDS011;63175;52.374;13.132;2024-01-16T13:23:00;3.13;;;2.30;;
7158;SDS011;63175;52.374;13.132;2024-01-16T13:25:28;5.07;;;2.00;;
7158;SDS011;63175;52.374;13.132;2024-01-16T13:27:55;5.93;;;2.23;;
7158;SDS011;63175;52.374;13.132;2024-01-16T13:30:21;7.73;;;2.10;;
7158;SDS011;63175;52.374;13.132;2024-01-16T13:32:49;3.43;;;2.20;;
7158;SDS011;63175;52.374;13.132;2024-01-16T13:35:15;4.97;;;1.97;;
7158;SDS011;63175;52.374;13.132;2024-01-16T13:37:42;5.33;;;1.97;;
7158;SDS011;63175;52.374;13.132;2024-01-16T13:40:11;4.17;;;1.50;;
7158;SDS011;63175;52.374;13.132;2024-01-16T13:42:40;2.53;;;1.87;;
7158;SDS011;63175;52.374;13.132;2024-01-16T13:45:08;4.03;;;1.73;;
7158;SDS011;63175;52.374;13.132;2024-01-16T13:47:35;4.30;;;2.00;;
7158;SDS011;63175;52.374;13.132;2024-01-16T13:50:05;3.30;;;1.50;;
7158;SDS011;63175;52.374;13.132;2024-01-16T13:52:33;9.90;;;2.90;;
7158;SDS011;63175;52.374;13.132;2024-01-16T13:55:00;2.70;;;1.50;;
7158;SDS011;63175;52.374;13.132;2024-01-16T13:57:31;3.93;;;1.67;;
7158;SDS011;63175;52.374;13.132;2024-01-16T14:00:00;2.00;;;1.80;;
7158;SDS011;63175;52.374;13.132;2024-01-16T14:02:28;3.43;;;2.10;;
7158;SDS011;63175;52.374;13.132;2024-01-16T14:04:55;3.60;;;1.50;;
7158;SDS011;63175;52.374;13.132;2024-01-16T14:07:22;5.53;;;1.80;;
7158;SDS011;63175;52.374;13.132;2024-01-16T14:09:48;5.53;;;1.70;;
7158;SDS011;63175;52.374;13.132;2024-01-16T14:12:15;3.40;;;1.80;;
7158;SDS011;63175;52.374;13.132;2024-01-16T14:14:45;5.17;;;1.80;;
7158;SDS011;63175;52.374;13.132;2024-01-16T14:17:12;8.00;;;2.20;;
7158;SDS011;63175;52.374;13.132;2024-01-16T14:19:40;5.17;;;2.00;;
7158;SDS011;63175;52.374;13.132;2024-01-16T14:22:07;4.90;;;1.87;;
7158;SDS011;63175;52.374;13.132;2024-01-16T14:24:34;6.53;;;2.30;;
7158;SDS011;63175;52.374;13.132;2024-01-16T14:27:03;4.60;;;2.17;;
7158;SDS011;63175;52.374;13.132;2024-01-16T14:29:30;8.87;;;2.73;;
7158;SDS011;63175;52.374;13.132;2024-01-16T14:32:00;2.73;;;2.50;;
7158;SDS011;63175;52.374;13.132;2024-01-16T14:34:27;5.00;;;2.27;;
7158;SDS011;63175;52.374;13.132;2024-01-16T14:36:54;5.83;;;2.70;;
7158;SDS011;63175;52.374;13.132;2024-01-16T14:39:21;7.83;;;3.00;;
7158;SDS011;63175;52.374;13.132;2024-01-16T14:41:49;6.40;;;2.90;;
7158;SDS011;63175;52.374;13.132;2024-01-16T14:44:17;4.73;;;2.90;;
7158;SDS011;63175;52.374;13.132;2024-01-16T14:46:44;6.07;;;3.63;;
7158;SDS011;63175;52.374;13.132;2024-01-16T14:49:12;9.60;;;2.70;;
7158;SDS011;63175;52.374;13.132;2024-01-16T14:51:39;8.43;;;2.50;;
7158;SDS011;63175;52.374;13.132;2024-01-16T14:54:06;5.40;;;2.40;;
7158;SDS011;63175;52.374;13.132;2024-01-16T14:56:32;4.00;;;2.13;;
7158;SDS011;63175;52.374;13.132;2024-01-16T14:58:59;2.60;;;2.40;;
7158;SDS011;63175;52.374;13.132;2024-01-16T15:01:26;5.27;;;3.03;;
7158;SDS011;63175;52.374;13.132;2024-01-16T15:03:53;4.70;;;2.50;;